Time;durP1;ratioP1;P1;durP2;ratioP2;P2;SDS_P1;SDS_P2;PMS_P1;PMS_P2;Temp;Humidity;BMP_temperature;BMP_pressure;BME280_temperature;BME280_humidity;BME280_pressure;Samples;Min_cycle;Max_cycle;Signal;HPM_P1;HPM_P2
2021/12/27 05:19:50;;;;;;;6.15;3.70;;;9.10;99.90;;;;;;5188867;23;20496;-79
2021/12/27 05:22:17;;;;;;;7.18;4.22;;;9.10;99.90;;;;;;5015783;28;20214;-79
2021/12/27 05:24:44;;;;;;;5.15;3.65;;;9.00;99.90;;;;;;5015869;28;20229;-79
2021/12/27 05:27:10;;;;;;;5.53;3.85;;;9.00;99.90;;;;;;5016011;28;20205;-80
2021/12/27 05:29:38;;;;;;;6.88;3.83;;;9.10;99.90;;;;;;5019894;28;20854;-80
2021/12/27 05:32:19;;;;;;;5.43;3.47;;;9.10;99.90;;;;;;5025094;28;20206;-81
2021/12/27 05:34:57;;;;;;;7.27;3.90;;;9.10;99.90;;;;;;5030846;28;20198;-80
2021/12/27 05:37:37;;;;;;;6.85;4.30;;;9.10;99.90;;;;;;5026658;28;20862;-81
2021/12/27 05:40:06;;;;;;;6.97;3.42;;;9.10;99.90;;;;;;5029967;28;20228;-80
2021/12/27 05:42:33;;;;;;;6.18;3.90;;;9.10;99.90;;;;;;5020382;28;20245;-80
2021/12/27 05:45:01;;;;;;;5.63;3.42;;;9.20;99.90;;;;;;5026764;28;20232;-80
2021/12/27 05:47:28;;;;;;;4.88;3.05;;;9.20;99.90;;;;;;5026114;28;20216;-80
2021/12/27 05:49:56;;;;;;;5.90;3.80;;;9.20;99.90;;;;;;5019370;28;20633;-81
2021/12/27 05:52:23;;;;;;;8.45;3.63;;;9.20;99.90;;;;;;5018745;28;20220;-81
2021/12/27 05:54:50;;;;;;;5.17;3.50;;;9.20;99.90;;;;;;5019017;28;20210;-81
2021/12/27 05:57:17;;;;;;;5.85;3.40;;;9.30;99.90;;;;;;5018789;28;20464;-81
2021/12/27 05:59:44;;;;;;;4.82;3.00;;;9.20;99.90;;;;;;5019016;28;20315;-81
2021/12/27 06:02:11;;;;;;;4.90;3.17;;;9.20;99.90;;;;;;5019331;28;20210;-82
2021/12/27 06:04:37;;;;;;;4.90;3.10;;;9.30;99.90;;;;;;5019539;28;20226;-81
2021/12/27 06:07:06;;;;;;;5.70;3.70;;;9.30;99.90;;;;;;5018755;28;20462;-81
2021/12/27 06:09:32;;;;;;;5.32;3.13;;;9.40;99.90;;;;;;5018367;28;20230;-80
2021/12/27 06:11:59;;;;;;;4.90;3.17;;;9.20;99.90;;;;;;5026038;28;20221;-81
2021/12/27 06:14:26;;;;;;;6.38;3.30;;;9.20;99.90;;;;;;5022519;28;20228;-80
2021/12/27 06:16:53;;;;;;;10.88;4.00;;;9.10;99.90;;;;;;5020056;28;20217;-80
2021/12/27 06:19:21;;;;;;;5.50;3.55;;;9.00;99.90;;;;;;5019259;28;20324;-80
2021/12/27 06:21:48;;;;;;;6.30;3.65;;;9.00;99.90;;;;;;5018448;28;20239;-81
2021/12/27 06:24:16;;;;;;;5.10;3.80;;;9.00;99.90;;;;;;5019913;28;20209;-81
2021/12/27 06:26:43;;;;;;;6.50;4.35;;;9.00;99.90;;;;;;5019824;28;20233;-81
2021/12/27 06:29:10;;;;;;;7.25;4.20;;;8.90;99.90;;;;;;5019984;28;20240;-81
2021/12/27 06:31:37;;;;;;;5.28;3.42;;;8.80;99.90;;;;;;5019695;28;20207;-81
2021/12/27 06:34:04;;;;;;;6.07;3.88;;;8.80;99.90;;;;;;5019452;28;20707;-81
2021/12/27 06:36:31;;;;;;;6.25;3.45;;;8.80;99.90;;;;;;5018924;28;20205;-81
2021/12/27 06:38:58;;;;;;;6.20;4.10;;;8.80;99.90;;;;;;5019125;28;20288;-81
2021/12/27 06:41:26;;;;;;;5.38;3.40;;;8.80;99.90;;;;;;5019277;28;20549;-81
2021/12/27 06:43:53;;;;;;;6.13;3.60;;;9.00;99.90;;;;;;5018462;28;20211;-80
2021/12/27 06:46:21;;;;;;;5.30;3.40;;;8.90;99.90;;;;;;5017922;28;20224;-80
2021/12/27 06:48:48;;;;;;;5.63;3.90;;;8.80;99.90;;;;;;5018098;28;20659;-80
2021/12/27 06:51:14;;;;;;;6.32;4.00;;;8.70;99.90;;;;;;5018499;28;20213;-82
2021/12/27 06:53:41;;;;;;;8.10;4.15;;;8.60;99.90;;;;;;5020515;28;20670;-81
2021/12/27 06:56:08;;;;;;;8.32;4.00;;;8.40;99.90;;;;;;5020523;28;20246;-81
2021/12/27 06:58:36;;;;;;;7.82;4.40;;;8.40;99.90;;;;;;5019601;28;20232;-81
2021/12/27 07:01:03;;;;;;;9.38;4.28;;;8.40;99.90;;;;;;5019214;28;20208;-80
2021/12/27 07:03:30;;;;;;;6.13;4.10;;;8.30;99.90;;;;;;5018067;28;20214;-80
2021/12/27 07:05:57;;;;;;;6.47;4.07;;;8.20;99.90;;;;;;5018719;28;20229;-80
2021/12/27 07:08:24;;;;;;;8.10;4.75;;;8.20;99.90;;;;;;5017797;28;20298;-81
2021/12/27 07:10:51;;;;;;;6.13;4.15;;;8.20;99.90;;;;;;5018007;28;20304;-80
2021/12/27 07:13:18;;;;;;;6.63;4.13;;;8.20;99.90;;;;;;5021041;28;20208;-80
2021/12/27 07:15:46;;;;;;;9.13;4.88;;;8.20;99.90;;;;;;5030278;28;20219;-81
2021/12/27 07:18:16;;;;;;;7.70;3.97;;;8.10;99.90;;;;;;5017846;28;20203;-80
2021/12/27 07:20:43;;;;;;;7.88;5.20;;;8.00;99.90;;;;;;5018777;28;20279;-81
2021/12/27 07:23:10;;;;;;;6.70;4.68;;;8.00;99.90;;;;;;5024729;28;20204;-79
2021/12/27 07:25:37;;;;;;;7.88;4.93;;;7.70;99.90;;;;;;5021961;28;20235;-80
2021/12/27 07:28:04;;;;;;;7.80;4.25;;;8.00;99.90;;;;;;5017876;28;20567;-81
2021/12/27 07:30:31;;;;;;;6.25;4.28;;;7.90;99.90;;;;;;5017191;28;20245;-81
2021/12/27 07:32:59;;;;;;;7.93;4.88;;;7.90;99.90;;;;;;5018014;28;20219;-81
2021/12/27 07:35:27;;;;;;;8.55;5.10;;;7.80;99.90;;;;;;5017164;28;20208;-81
2021/12/27 07:37:54;;;;;;;7.22;4.78;;;8.00;99.90;;;;;;5017257;28;20215;-79
2021/12/27 07:40:21;;;;;;;7.78;5.05;;;8.00;99.90;;;;;;5019086;28;20312;-80
2021/12/27 07:42:48;;;;;;;7.25;4.80;;;7.90;99.90;;;;;;5026897;28;20211;-80
2021/12/27 07:45:15;;;;;;;7.50;5.18;;;7.80;99.90;;;;;;5030575;28;20554;-80
2021/12/27 07:47:42;;;;;;;7.45;4.78;;;7.90;99.90;;;;;;5023512;28;20212;-81
2021/12/27 07:50:10;;;;;;;5.82;3.78;;;8.10;99.90;;;;;;5018168;28;20324;-80
2021/12/27 07:52:37;;;;;;;5.80;4.07;;;7.70;99.90;;;;;;5016342;28;20213;-80
2021/12/27 07:55:05;;;;;;;9.40;4.70;;;8.00;99.90;;;;;;5017434;28;20214;-80
2021/12/27 07:57:32;;;;;;;5.57;4.05;;;8.00;99.90;;;;;;5018398;28;20219;-79
2021/12/27 07:59:59;;;;;;;6.38;4.03;;;8.00;99.90;;;;;;5023208;28;20236;-81
2021/12/27 08:02:26;;;;;;;7.03;4.35;;;8.00;99.90;;;;;;5020752;28;20685;-81
2021/12/27 08:04:53;;;;;;;7.30;4.53;;;8.00;99.90;;;;;;5017089;28;20626;-81
2021/12/27 08:07:21;;;;;;;6.05;4.25;;;8.00;99.90;;;;;;5017635;28;20213;-81
2021/12/27 08:09:48;;;;;;;8.02;4.47;;;7.90;99.90;;;;;;5016281;28;20319;-81
2021/12/27 08:12:14;;;;;;;6.10;3.83;;;8.00;99.90;;;;;;5018547;28;20279;-81
2021/12/27 08:14:41;;;;;;;12.63;4.85;;;8.00;99.90;;;;;;5018017;28;20312;-81
2021/12/27 08:17:08;;;;;;;8.07;4.53;;;8.10;99.90;;;;;;5018759;28;20223;-81
2021/12/27 08:19:35;;;;;;;9.43;5.07;;;8.20;99.90;;;;;;5020328;28;20244;-81
2021/12/27 08:22:03;;;;;;;7.65;4.82;;;8.10;99.90;;;;;;5019986;28;20213;-82
2021/12/27 08:24:31;;;;;;;7.53;4.93;;;8.00;99.90;;;;;;5019397;28;20213;-81
2021/12/27 08:27:02;;;;;;;7.78;5.40;;;7.80;99.90;;;;;;5020214;28;20231;-81
2021/12/27 08:29:29;;;;;;;11.63;4.95;;;7.50;99.90;;;;;;5019480;28;20229;-81
2021/12/27 08:31:56;;;;;;;7.85;4.68;;;8.00;99.90;;;;;;5020739;28;20213;-80
2021/12/27 08:34:23;;;;;;;7.30;4.72;;;8.00;99.90;;;;;;5022580;28;20299;-80
2021/12/27 08:36:50;;;;;;;8.30;5.10;;;8.10;99.90;;;;;;5022969;28;20214;-80
2021/12/27 08:39:17;;;;;;;7.82;4.60;;;8.20;99.90;;;;;;5023377;28;20305;-80
2021/12/27 08:41:45;;;;;;;6.65;4.10;;;8.20;99.90;;;;;;5022873;28;20232;-80
2021/12/27 08:44:12;;;;;;;7.70;5.03;;;8.30;99.90;;;;;;5022180;28;20220;-80
2021/12/27 08:46:40;;;;;;;6.80;4.55;;;8.30;99.90;;;;;;5022680;28;20242;-81
2021/12/27 08:49:07;;;;;;;8.35;4.90;;;8.40;99.90;;;;;;5029273;28;20234;-80
2021/12/27 08:51:34;;;;;;;5.93;4.20;;;8.40;99.90;;;;;;5025251;28;20205;-80
2021/12/27 08:54:01;;;;;;;7.00;4.90;;;8.60;99.90;;;;;;5023242;28;20232;-80
2021/12/27 08:56:28;;;;;;;7.30;4.50;;;8.70;99.90;;;;;;5024100;28;20207;-81
2021/12/27 08:58:56;;;;;;;5.70;3.72;;;8.80;99.90;;;;;;5018320;28;20305;-80
2021/12/27 09:01:23;;;;;;;7.43;4.22;;;8.90;99.90;;;;;;5016615;28;20210;-80
2021/12/27 09:03:50;;;;;;;7.70;4.60;;;9.00;99.90;;;;;;5018965;28;20221;-80
2021/12/27 09:06:17;;;;;;;7.20;4.00;;;9.00;99.90;;;;;;5020386;28;20229;-80
2021/12/27 09:08:44;;;;;;;6.68;3.88;;;9.10;99.90;;;;;;5021577;28;20233;-80
2021/12/27 09:11:11;;;;;;;9.32;5.20;;;9.10;99.90;;;;;;5022247;28;20218;-80
2021/12/27 09:13:38;;;;;;;7.20;5.10;;;9.10;99.90;;;;;;5020422;28;20213;-80
2021/12/27 09:16:10;;;;;;;8.10;4.82;;;9.20;99.90;;;;;;5021301;28;20445;-80
2021/12/27 09:18:37;;;;;;;9.45;4.63;;;9.20;99.90;;;;;;5023721;28;20244;-81
2021/12/27 09:21:04;;;;;;;5.38;4.07;;;9.20;99.90;;;;;;5020606;28;20206;-81
2021/12/27 09:23:31;;;;;;;8.57;5.18;;;9.20;99.90;;;;;;5020337;28;20209;-81
2021/12/27 09:25:58;;;;;;;7.60;4.65;;;9.40;99.90;;;;;;5019975;28;20229;-80
2021/12/27 09:28:25;;;;;;;6.60;4.30;;;9.40;99.90;;;;;;5019815;28;20264;-80
2021/12/27 09:30:52;;;;;;;7.65;4.50;;;9.40;99.90;;;;;;5020061;28;20296;-81
2021/12/27 09:33:20;;;;;;;5.95;3.85;;;9.60;99.90;;;;;;5019775;28;20209;-81
2021/12/27 09:35:47;;;;;;;10.68;4.30;;;9.60;99.90;;;;;;5019919;28;20311;-81
2021/12/27 09:38:14;;;;;;;5.70;4.15;;;9.70;99.90;;;;;;5019494;28;20204;-80
2021/12/27 09:40:42;;;;;;;6.60;4.80;;;9.70;99.90;;;;;;5020342;28;20611;-81
2021/12/27 09:43:09;;;;;;;6.10;4.10;;;9.70;99.90;;;;;;5019727;28;20385;-81
2021/12/27 09:45:37;;;;;;;7.28;4.60;;;9.80;99.90;;;;;;5019349;28;20453;-81
2021/12/27 09:48:04;;;;;;;7.10;4.82;;;9.80;99.90;;;;;;5019310;28;20228;-80
2021/12/27 09:50:36;;;;;;;6.40;4.80;;;9.80;99.90;;;;;;5019847;28;20671;-80
2021/12/27 09:53:03;;;;;;;7.25;5.20;;;9.80;99.90;;;;;;5020181;28;20487;-81
2021/12/27 09:55:30;;;;;;;7.88;5.10;;;9.80;99.90;;;;;;5019230;28;20292;-81
2021/12/27 09:57:57;;;;;;;7.27;4.10;;;9.90;99.90;;;;;;5020275;28;20217;-80
2021/12/27 10:00:24;;;;;;;6.97;4.55;;;9.90;99.90;;;;;;5021608;28;20488;-81
2021/12/27 10:02:53;;;;;;;8.70;4.63;;;9.90;99.90;;;;;;5019256;28;20709;-80
2021/12/27 10:05:21;;;;;;;7.00;4.50;;;9.90;99.90;;;;;;5019839;28;20459;-80
2021/12/27 10:07:50;;;;;;;5.75;4.22;;;9.90;99.90;;;;;;5019121;28;20483;-81
2021/12/27 10:10:17;;;;;;;5.13;3.20;;;9.90;99.90;;;;;;5020907;28;20617;-80
2021/12/27 10:12:45;;;;;;;6.35;4.30;;;9.90;99.90;;;;;;5021956;28;20814;-81
2021/12/27 10:15:14;;;;;;;6.80;4.05;;;9.90;99.90;;;;;;5018333;28;20225;-80
2021/12/27 10:17:42;;;;;;;7.78;4.30;;;10.00;99.90;;;;;;5019820;28;20211;-80
2021/12/27 10:20:12;;;;;;;4.80;3.07;;;10.00;99.90;;;;;;5020318;28;20616;-80
2021/12/27 10:22:40;;;;;;;8.00;5.03;;;10.20;99.90;;;;;;5019241;28;20459;-80
2021/12/27 10:25:14;;;;;;;5.90;3.37;;;10.10;99.90;;;;;;5019150;28;20488;-81
2021/12/27 10:27:42;;;;;;;5.55;3.63;;;10.30;99.90;;;;;;5019408;28;20484;-80
2021/12/27 10:30:14;;;;;;;6.97;4.07;;;10.20;99.90;;;;;;5018878;28;20782;-81
2021/12/27 10:32:41;;;;;;;5.20;3.35;;;10.20;99.90;;;;;;5018732;28;20566;-80
2021/12/27 10:35:09;;;;;;;6.55;3.78;;;10.10;99.90;;;;;;5018936;28;20274;-82
2021/12/27 10:37:37;;;;;;;4.95;3.30;;;10.10;99.90;;;;;;5018619;28;20214;-81
2021/12/27 10:40:08;;;;;;;5.15;3.42;;;10.10;99.90;;;;;;5019291;28;20648;-81
2021/12/27 10:42:38;;;;;;;6.68;3.72;;;10.10;99.90;;;;;;5018602;28;20304;-80
2021/12/27 10:45:07;;;;;;;7.03;3.70;;;10.20;99.90;;;;;;5024472;28;20210;-80
2021/12/27 10:47:40;;;;;;;6.53;3.60;;;10.30;99.90;;;;;;5018397;28;21077;-80
2021/12/27 10:50:13;;;;;;;5.13;3.23;;;10.50;99.90;;;;;;5021260;28;20532;-80
2021/12/27 10:52:42;;;;;;;6.43;3.20;;;10.60;99.90;;;;;;5021199;28;20434;-80
2021/12/27 10:55:09;;;;;;;7.60;4.50;;;10.60;99.90;;;;;;5020386;28;20522;-80
2021/12/27 10:57:37;;;;;;;6.30;3.63;;;10.60;99.90;;;;;;5019896;28;20445;-80
2021/12/27 11:00:24;;;;;;;5.70;3.60;;;10.70;99.90;;;;;;5019914;28;20478;-80
2021/12/27 11:02:51;;;;;;;6.07;2.97;;;10.70;99.90;;;;;;5023845;28;20450;-79
2021/12/27 11:05:23;;;;;;;5.63;3.13;;;10.80;99.90;;;;;;5018431;28;20205;-80
2021/12/27 11:07:50;;;;;;;4.87;3.50;;;10.70;99.90;;;;;;5019337;28;20293;-80
2021/12/27 11:10:17;;;;;;;6.07;3.60;;;10.80;99.90;;;;;;5022754;28;20484;-80
2021/12/27 11:12:45;;;;;;;5.77;3.10;;;10.80;99.90;;;;;;5018818;28;20537;-81
2021/12/27 11:15:12;;;;;;;7.00;3.50;;;10.80;99.90;;;;;;5018694;28;20453;-81
2021/12/27 11:17:40;;;;;;;6.47;3.10;;;10.90;99.90;;;;;;5017632;28;20528;-80
2021/12/27 14:06:12;;;;;;;7.70;5.13;;;11.10;99.90;;;;;;5007812;28;20427;-89
2021/12/27 14:12:52;;;;;;;7.37;4.33;;;11.20;99.90;;;;;;4953891;28;20508;-88
2021/12/27 16:00:31;;;;;;;9.57;6.60;;;10.80;99.90;;;;;;4913501;29;20486;-90
2021/12/27 17:19:53;;;;;;;11.27;5.70;;;10.50;99.90;;;;;;1915688;23;20500;-81
2021/12/27 17:22:19;;;;;;;9.47;6.27;;;10.50;99.90;;;;;;5022515;28;20498;-81
2021/12/27 17:24:46;;;;;;;7.13;5.15;;;10.50;99.90;;;;;;5025454;28;20480;-80
2021/12/27 17:27:14;;;;;;;9.87;6.00;;;10.40;99.90;;;;;;5022095;28;20627;-80
2021/12/27 17:29:41;;;;;;;8.17;5.50;;;10.40;99.90;;;;;;5020232;28;20484;-82
2021/12/27 17:32:09;;;;;;;7.47;5.47;;;10.50;99.90;;;;;;5021361;28;20487;-81
2021/12/27 17:34:37;;;;;;;10.23;6.40;;;10.50;99.90;;;;;;5021349;28;20926;-81
2021/12/27 17:37:06;;;;;;;6.97;4.93;;;10.50;99.90;;;;;;5020918;28;20463;-82
2021/12/27 17:39:33;;;;;;;7.10;5.17;;;10.60;99.90;;;;;;5020743;28;20528;-81
2021/12/27 17:42:03;;;;;;;6.63;4.70;;;10.50;99.90;;;;;;5023629;28;20745;-82
2021/12/27 17:44:31;;;;;;;8.60;5.07;;;10.50;99.90;;;;;;5025821;28;20889;-81
2021/12/27 17:46:58;;;;;;;7.50;4.70;;;10.50;99.90;;;;;;5020796;28;20548;-81
2021/12/27 17:49:25;;;;;;;7.90;4.70;;;10.40;99.90;;;;;;5021038;28;20475;-80
2021/12/27 17:51:52;;;;;;;6.72;3.85;;;10.40;99.90;;;;;;5021766;28;20463;-80
2021/12/27 17:54:21;;;;;;;5.88;3.80;;;10.30;99.90;;;;;;5021274;28;20219;-82
2021/12/27 17:56:48;;;;;;;6.23;4.40;;;10.40;99.90;;;;;;5023091;28;20225;-80
2021/12/27 17:59:15;;;;;;;7.00;4.57;;;10.30;99.90;;;;;;5022514;28;20482;-81
2021/12/27 18:01:41;;;;;;;7.43;4.90;;;10.30;99.90;;;;;;5022929;28;20244;-81
2021/12/27 18:04:08;;;;;;;7.18;4.65;;;10.30;99.90;;;;;;5021383;28;20543;-81
2021/12/27 18:06:35;;;;;;;8.37;4.27;;;10.20;99.90;;;;;;5022284;28;20211;-81
2021/12/27 18:09:02;;;;;;;6.00;4.07;;;10.20;99.90;;;;;;5033861;28;20500;-82
2021/12/27 18:11:30;;;;;;;9.55;4.55;;;10.20;99.90;;;;;;5022989;28;20476;-82
2021/12/27 18:13:59;;;;;;;5.35;3.60;;;10.30;99.90;;;;;;5022921;28;20266;-82
2021/12/27 18:16:29;;;;;;;5.17;3.60;;;10.30;99.90;;;;;;5025302;28;20218;-80
2021/12/27 18:18:56;;;;;;;5.40;3.20;;;10.10;99.90;;;;;;5024032;28;20448;-82
2021/12/27 18:21:23;;;;;;;5.07;3.13;;;10.10;99.90;;;;;;5022714;28;20565;-82
2021/12/27 18:23:50;;;;;;;4.93;3.13;;;10.10;99.90;;;;;;5027191;28;20221;-81
2021/12/27 18:26:17;;;;;;;6.47;3.10;;;10.00;99.90;;;;;;5032746;28;20456;-81
2021/12/27 18:28:46;;;;;;;7.00;3.80;;;10.00;99.90;;;;;;5023104;28;20316;-81
2021/12/27 18:31:12;;;;;;;6.22;2.80;;;10.00;99.90;;;;;;5027393;28;20470;-82
2021/12/27 18:33:39;;;;;;;5.07;3.17;;;10.00;99.90;;;;;;5023707;28;20214;-82
2021/12/27 18:36:06;;;;;;;4.75;2.65;;;9.90;99.90;;;;;;5022826;28;20298;-82
2021/12/27 18:38:33;;;;;;;4.73;3.00;;;9.90;99.90;;;;;;5023902;28;20209;-82
2021/12/27 18:41:00;;;;;;;5.60;2.90;;;9.90;99.90;;;;;;5028507;28;20488;-79
2021/12/27 18:43:27;;;;;;;4.47;2.83;;;9.80;99.90;;;;;;5031291;28;20453;-81
2021/12/27 18:45:56;;;;;;;4.25;2.00;;;9.80;99.90;;;;;;5030680;28;20213;-83
2021/12/27 18:48:24;;;;;;;9.90;2.97;;;9.80;99.90;;;;;;5023900;28;20261;-80
2021/12/27 18:50:51;;;;;;;5.20;2.60;;;9.80;99.90;;;;;;5022820;28;20492;-81
2021/12/27 18:53:18;;;;;;;4.10;2.17;;;9.80;99.90;;;;;;5023587;28;20829;-81
2021/12/27 18:55:46;;;;;;;5.13;2.95;;;9.80;99.90;;;;;;5022093;28;20216;-82
2021/12/27 18:58:13;;;;;;;6.15;2.35;;;9.90;99.90;;;;;;5023912;28;20273;-81
2021/12/27 19:00:42;;;;;;;5.57;2.20;;;9.90;99.90;;;;;;5023926;28;20260;-82
2021/12/27 19:03:11;;;;;;;4.78;2.60;;;9.80;99.90;;;;;;5030613;28;20222;-81
2021/12/27 19:05:39;;;;;;;3.60;2.00;;;9.80;99.90;;;;;;5035972;28;20214;-81
2021/12/27 19:08:06;;;;;;;5.57;2.50;;;9.90;99.90;;;;;;5031824;28;20678;-81
2021/12/27 19:10:33;;;;;;;4.40;2.53;;;9.90;99.90;;;;;;5032410;28;20264;-80
2021/12/27 19:13:00;;;;;;;5.70;2.47;;;9.90;99.90;;;;;;5028158;28;20209;-80
2021/12/27 19:15:28;;;;;;;3.95;1.90;;;9.80;99.90;;;;;;5022101;28;20215;-82
2021/12/27 19:17:54;;;;;;;4.85;2.15;;;9.80;99.90;;;;;;5022554;28;20220;-81
2021/12/27 19:20:25;;;;;;;3.90;2.20;;;9.80;99.90;;;;;;5030306;28;20248;-82
2021/12/27 19:22:52;;;;;;;6.05;2.05;;;9.90;99.90;;;;;;5029647;28;20468;-82
2021/12/27 19:25:20;;;;;;;3.67;1.70;;;9.90;99.90;;;;;;5024250;28;20299;-82
2021/12/27 19:27:49;;;;;;;3.90;2.07;;;9.90;99.90;;;;;;5028197;28;20522;-81
2021/12/27 19:30:16;;;;;;;3.25;1.75;;;9.90;99.90;;;;;;5025939;28;20472;-83
2021/12/27 19:32:43;;;;;;;3.73;1.60;;;9.90;99.90;;;;;;5020762;28;20678;-82
2021/12/27 19:35:13;;;;;;;6.65;2.20;;;9.90;99.90;;;;;;5022735;28;20893;-82
2021/12/27 19:37:41;;;;;;;5.00;2.37;;;9.90;99.90;;;;;;5021398;28;20214;-82
2021/12/27 19:40:10;;;;;;;4.80;2.17;;;10.00;99.90;;;;;;5021184;28;20490;-82
2021/12/27 19:42:37;;;;;;;5.15;2.10;;;9.90;99.90;;;;;;5021079;28;20457;-81
2021/12/27 19:45:05;;;;;;;3.60;1.90;;;10.00;99.90;;;;;;5021276;28;20299;-81
2021/12/27 19:47:32;;;;;;;5.28;2.08;;;9.90;99.90;;;;;;5019953;28;20638;-83
2021/12/27 19:49:59;;;;;;;3.83;2.00;;;9.90;99.90;;;;;;5020223;28;20284;-82
2021/12/27 19:52:25;;;;;;;4.37;1.60;;;9.80;99.90;;;;;;5021908;28;20245;-83
2021/12/27 19:54:54;;;;;;;4.00;2.25;;;9.80;99.90;;;;;;5020985;28;20462;-81
2021/12/27 19:57:20;;;;;;;4.63;2.38;;;9.90;99.90;;;;;;5022302;28;20217;-82
2021/12/27 19:59:47;;;;;;;4.00;1.80;;;9.90;99.90;;;;;;5031256;28;20230;-81
2021/12/27 20:02:14;;;;;;;4.53;1.90;;;9.90;99.90;;;;;;5026412;28;20218;-82
2021/12/27 20:04:41;;;;;;;4.40;2.17;;;9.90;99.90;;;;;;5031318;28;20546;-82
2021/12/27 20:07:08;;;;;;;5.47;1.85;;;9.90;99.90;;;;;;5022468;28;20216;-81
2021/12/27 20:09:35;;;;;;;3.67;1.70;;;9.90;99.90;;;;;;5027821;28;20261;-82
2021/12/27 20:12:03;;;;;;;3.92;1.75;;;9.90;99.90;;;;;;5024085;28;20273;-80
2021/12/27 20:14:31;;;;;;;3.13;1.27;;;9.90;99.90;;;;;;5024036;28;20206;-80
2021/12/27 20:16:58;;;;;;;3.23;1.50;;;9.90;99.90;;;;;;5024041;28;20642;-81
2021/12/27 20:19:25;;;;;;;4.05;1.98;;;9.90;99.90;;;;;;5019841;28;20544;-81
2021/12/27 20:21:52;;;;;;;3.92;1.92;;;9.80;99.90;;;;;;5020329;28;20228;-82
2021/12/27 20:24:21;;;;;;;3.95;1.67;;;9.80;99.90;;;;;;5019923;28;20638;-81
2021/12/27 20:26:48;;;;;;;3.75;1.90;;;9.80;99.90;;;;;;5019630;28;20209;-81
2021/12/27 20:29:19;;;;;;;3.70;1.97;;;9.80;99.90;;;;;;5023632;28;20248;-82
2021/12/27 20:31:45;;;;;;;5.60;2.15;;;9.80;99.90;;;;;;5021214;28;20437;-81
2021/12/27 20:34:12;;;;;;;3.38;1.45;;;9.80;99.90;;;;;;5020399;28;20300;-82
2021/12/27 20:36:39;;;;;;;4.40;1.90;;;9.80;99.90;;;;;;5022436;28;20239;-81
2021/12/27 20:39:09;;;;;;;3.63;1.93;;;9.80;99.90;;;;;;5020624;28;20456;-82
2021/12/27 20:41:36;;;;;;;4.38;1.40;;;9.90;99.90;;;;;;5019793;28;20958;-81
2021/12/27 20:44:03;;;;;;;3.55;1.95;;;9.90;99.90;;;;;;5020408;28;20223;-82
2021/12/27 20:46:32;;;;;;;4.05;1.80;;;9.80;99.90;;;;;;5020796;28;20636;-83
2021/12/27 20:48:59;;;;;;;4.00;2.03;;;9.90;99.90;;;;;;5020883;28;20231;-81
2021/12/27 20:51:26;;;;;;;4.15;1.80;;;9.90;99.90;;;;;;5022605;28;20565;-81
2021/12/27 20:53:53;;;;;;;3.75;1.90;;;9.90;99.90;;;;;;5022514;28;20213;-81
2021/12/27 20:56:20;;;;;;;3.50;1.60;;;9.90;99.90;;;;;;5020866;28;20220;-81
2021/12/27 20:58:47;;;;;;;3.53;1.60;;;9.90;99.90;;;;;;5019259;28;20205;-81
2021/12/27 21:01:14;;;;;;;3.08;1.40;;;9.90;99.90;;;;;;5020687;28;20318;-82
2021/12/27 21:03:42;;;;;;;4.67;2.30;;;9.90;99.90;;;;;;5020059;28;20236;-82
2021/12/27 21:06:11;;;;;;;4.30;2.13;;;9.80;99.90;;;;;;5019700;28;20475;-82
2021/12/27 21:08:40;;;;;;;4.45;2.40;;;9.90;99.90;;;;;;5022523;28;20485;-81
2021/12/27 21:11:07;;;;;;;4.70;2.40;;;10.00;99.90;;;;;;5025296;28;20306;-82
2021/12/27 21:13:33;;;;;;;4.75;2.08;;;9.80;99.90;;;;;;5020863;28;20206;-83
2021/12/27 21:16:00;;;;;;;3.37;1.60;;;9.70;99.90;;;;;;5019645;28;20237;-82
2021/12/27 21:18:27;;;;;;;3.90;1.95;;;9.70;99.90;;;;;;5019704;28;20814;-82
2021/12/27 21:20:56;;;;;;;3.80;1.88;;;9.80;99.90;;;;;;5018721;28;20249;-82
2021/12/27 21:23:22;;;;;;;3.40;1.50;;;9.80;99.90;;;;;;5026496;28;20237;-81
2021/12/27 21:25:50;;;;;;;3.40;1.83;;;9.80;99.90;;;;;;5020564;28;20459;-80
2021/12/27 21:28:16;;;;;;;5.45;2.47;;;9.90;99.90;;;;;;5017758;28;20221;-82
2021/12/27 21:30:43;;;;;;;3.83;1.90;;;9.80;99.90;;;;;;5016770;28;20264;-80
2021/12/27 21:33:10;;;;;;;6.68;3.72;;;9.80;99.90;;;;;;5017620;28;20453;-81
2021/12/27 21:35:37;;;;;;;4.47;2.20;;;9.80;99.90;;;;;;5020165;28;20221;-82
2021/12/27 21:38:05;;;;;;;4.20;2.00;;;9.80;99.90;;;;;;5031153;28;20521;-80
2021/12/27 21:40:32;;;;;;;4.10;2.20;;;9.80;99.90;;;;;;5026659;28;20238;-82
2021/12/27 21:42:59;;;;;;;5.33;2.33;;;9.80;99.90;;;;;;5020904;28;20228;-82
2021/12/27 21:45:28;;;;;;;4.40;2.00;;;9.90;99.90;;;;;;5017602;28;20455;-82
2021/12/27 21:47:57;;;;;;;5.50;2.17;;;9.90;99.90;;;;;;5018148;28;20449;-82
2021/12/27 21:50:26;;;;;;;4.03;2.20;;;9.90;99.90;;;;;;5022640;28;20512;-81
2021/12/27 21:52:56;;;;;;;6.15;2.00;;;9.80;99.90;;;;;;5028695;28;20210;-82
2021/12/27 21:55:26;;;;;;;4.10;2.40;;;9.90;99.90;;;;;;5023675;28;20199;-82
2021/12/27 21:57:53;;;;;;;4.07;2.20;;;9.90;99.90;;;;;;5019403;28;20432;-81
2021/12/27 22:00:21;;;;;;;8.17;2.10;;;9.90;99.90;;;;;;5019003;28;20507;-82
2021/12/27 22:02:49;;;;;;;5.50;2.80;;;9.90;99.90;;;;;;5026596;28;20457;-80
2021/12/27 22:05:18;;;;;;;4.40;2.30;;;9.90;99.90;;;;;;5028712;28;20453;-81
2021/12/27 22:07:45;;;;;;;4.43;2.17;;;10.00;99.90;;;;;;5023168;28;20477;-81
2021/12/27 22:10:13;;;;;;;4.10;2.20;;;10.00;99.90;;;;;;5017215;28;20642;-81
2021/12/27 22:12:42;;;;;;;3.23;1.83;;;10.00;99.90;;;;;;5020848;28;20518;-81
2021/12/27 22:15:11;;;;;;;3.83;2.07;;;10.00;99.90;;;;;;5021220;28;20832;-81
2021/12/27 22:17:38;;;;;;;3.53;2.07;;;10.00;99.90;;;;;;5020649;28;20980;-82
2021/12/27 22:20:07;;;;;;;6.30;2.20;;;10.10;99.90;;;;;;5023403;28;20473;-81
2021/12/27 22:22:34;;;;;;;3.83;2.20;;;10.10;99.90;;;;;;5024028;28;20672;-82
2021/12/27 22:25:02;;;;;;;4.47;2.30;;;10.10;99.90;;;;;;5021491;28;20524;-82
2021/12/27 22:27:29;;;;;;;4.47;2.85;;;10.10;99.90;;;;;;5025489;28;20221;-81
2021/12/27 22:29:57;;;;;;;4.20;1.83;;;10.10;99.90;;;;;;5029780;28;20239;-81
2021/12/27 22:32:24;;;;;;;3.60;1.90;;;10.10;99.90;;;;;;5025298;28;20819;-82
2021/12/27 22:34:52;;;;;;;4.77;2.00;;;10.20;99.90;;;;;;5020208;28;20454;-81
2021/12/27 22:37:20;;;;;;;3.38;1.80;;;10.30;99.90;;;;;;5019935;28;20862;-82
2021/12/27 22:39:48;;;;;;;3.40;1.73;;;10.20;99.90;;;;;;5019252;28;20237;-81
2021/12/27 22:42:18;;;;;;;3.53;1.90;;;10.20;99.90;;;;;;5020168;28;20907;-81
2021/12/27 22:44:45;;;;;;;4.30;1.70;;;10.30;99.90;;;;;;5019818;28;20496;-81
2021/12/27 22:47:13;;;;;;;4.90;1.87;;;10.30;99.90;;;;;;5019424;28;20453;-81
2021/12/27 22:49:40;;;;;;;5.83;1.90;;;10.30;99.90;;;;;;5019760;28;20517;-81
2021/12/27 22:52:08;;;;;;;3.23;1.50;;;10.30;99.90;;;;;;5020534;28;20464;-80
2021/12/27 22:54:34;;;;;;;5.53;1.87;;;10.30;99.90;;;;;;5021734;28;20467;-81
2021/12/27 22:57:02;;;;;;;4.63;1.60;;;10.30;99.90;;;;;;5020516;28;20541;-82
2021/12/27 22:59:29;;;;;;;6.70;1.60;;;10.30;99.90;;;;;;5019897;28;20473;-82
2021/12/27 23:01:56;;;;;;;3.77;1.47;;;10.40;99.90;;;;;;5020189;28;20216;-81
2021/12/27 23:04:24;;;;;;;3.50;1.50;;;10.40;99.90;;;;;;5020125;28;20461;-81
2021/12/27 23:06:51;;;;;;;3.78;1.60;;;10.50;99.90;;;;;;5030258;28;20968;-82
2021/12/27 23:09:17;;;;;;;4.80;1.60;;;10.30;99.90;;;;;;5019263;28;20227;-82
2021/12/27 23:11:44;;;;;;;4.83;2.03;;;10.20;99.90;;;;;;5026223;28;20529;-81
2021/12/27 23:14:11;;;;;;;5.47;1.80;;;10.30;99.90;;;;;;5026686;28;20513;-80
2021/12/27 23:16:38;;;;;;;4.47;2.00;;;10.20;99.90;;;;;;5020249;28;20953;-81
2021/12/27 23:19:05;;;;;;;3.67;1.80;;;10.00;99.90;;;;;;5020710;28;20455;-83
